Time;durP1;ratioP1;P1;durP2;ratioP2;P2;SDS_P1;SDS_P2;PMS_P1;PMS_P2;Temp;Humidity;BMP_temperature;BMP_pressure;BME280_temperature;BME280_humidity;BME280_pressure;Samples;Min_cycle;Max_cycle;Signal;HPM_P1;HPM_P2
2023/02/27 00:01:21;;;;;;;26.15;4.63;;;;;;;-5.93;100.00;99407.75;4196177;28;20028;-72
2023/02/27 00:03:22;;;;;;;10.70;3.75;;;;;;;-5.86;100.00;99407.53;4192954;28;20490;-72
2023/02/27 00:05:22;;;;;;;8.02;4.47;;;;;;;-5.87;100.00;99408.59;4195972;28;20068;-72
2023/02/27 00:07:24;;;;;;;16.63;3.90;;;;;;;-5.81;100.00;99411.09;4192764;28;20147;-72
2023/02/27 00:09:25;;;;;;;15.13;4.72;;;;;;;-5.77;100.00;99406.84;4192034;28;20049;-72
2023/02/27 00:11:26;;;;;;;9.18;3.50;;;;;;;-5.71;100.00;99410.41;4191835;28;20421;-72
2023/02/27 00:13:26;;;;;;;9.32;4.22;;;;;;;-5.78;100.00;99405.22;4191388;28;20165;-72
2023/02/27 00:15:29;;;;;;;6.32;3.83;;;;;;;-5.92;100.00;99408.56;4197394;28;20032;-72
2023/02/27 00:17:30;;;;;;;6.82;3.55;;;;;;;-6.07;100.00;99404.56;4192982;28;20049;-72
2023/02/27 00:19:30;;;;;;;7.65;3.08;;;;;;;-6.17;100.00;99407.13;4191943;28;20094;-72
2023/02/27 00:21:31;;;;;;;10.18;3.70;;;;;;;-6.16;100.00;99405.22;4195181;28;20128;-72
2023/02/27 00:23:31;;;;;;;7.38;3.72;;;;;;;-6.13;100.00;99420.88;4190378;28;20094;-72
2023/02/27 00:25:33;;;;;;;10.50;3.90;;;;;;;-6.18;100.00;99416.25;4192589;28;20048;-72
2023/02/27 00:27:34;;;;;;;6.93;3.60;;;;;;;-6.11;100.00;99411.53;4191583;28;20644;-72
2023/02/27 00:29:34;;;;;;;8.63;4.10;;;;;;;-6.15;100.00;99415.75;4192109;28;20283;-72
2023/02/27 00:31:34;;;;;;;11.00;4.28;;;;;;;-6.24;100.00;99412.66;4193469;28;20089;-72
2023/02/27 00:33:34;;;;;;;12.10;3.88;;;;;;;-6.23;100.00;99413.47;4194130;28;20059;-72
2023/02/27 00:35:35;;;;;;;9.35;4.10;;;;;;;-6.19;100.00;99409.25;4191932;28;20053;-72
2023/02/27 00:37:36;;;;;;;17.60;6.13;;;;;;;-6.12;100.00;99401.81;4192036;28;20372;-72
2023/02/27 00:39:36;;;;;;;23.48;6.97;;;;;;;-6.19;100.00;99401.16;4191648;28;20033;-72
2023/02/27 00:41:37;;;;;;;16.05;6.78;;;;;;;-6.20;100.00;99404.91;4191413;28;20306;-72
2023/02/27 00:43:37;;;;;;;14.98;5.38;;;;;;;-6.27;100.00;99401.56;4194796;28;20032;-72
2023/02/27 00:45:37;;;;;;;15.40;6.68;;;;;;;-6.26;100.00;99414.78;4193583;28;20055;-72
2023/02/27 00:47:38;;;;;;;17.15;6.97;;;;;;;-6.25;100.00;99402.94;4191728;28;20098;-72
2023/02/27 00:49:38;;;;;;;18.73;5.60;;;;;;;-6.33;100.00;99397.16;4191633;28;20045;-72
2023/02/27 00:51:38;;;;;;;16.42;5.57;;;;;;;-6.49;100.00;99404.19;4192738;28;20142;-72
2023/02/27 00:53:39;;;;;;;13.10;5.35;;;;;;;-6.47;100.00;99398.53;4190337;28;20113;-72
2023/02/27 00:55:39;;;;;;;13.20;5.60;;;;;;;-6.35;100.00;99408.19;4194874;28;20040;-73
2023/02/27 00:57:39;;;;;;;14.63;5.38;;;;;;;-6.32;100.00;99413.06;4193028;28;20063;-72
2023/02/27 00:59:40;;;;;;;18.50;5.72;;;;;;;-6.30;100.00;99410.94;4197319;28;20172;-72
2023/02/27 01:01:40;;;;;;;12.68;5.80;;;;;;;-6.35;100.00;99410.06;4193214;28;20052;-72
2023/02/27 01:03:40;;;;;;;11.15;4.60;;;;;;;-6.51;100.00;99411.69;4197193;28;20135;-72
2023/02/27 01:05:41;;;;;;;10.55;4.45;;;;;;;-6.62;100.00;99409.88;4194414;28;20052;-72
2023/02/27 01:07:41;;;;;;;14.50;4.82;;;;;;;-6.58;100.00;99398.38;4200822;28;20125;-72
2023/02/27 01:09:42;;;;;;;17.95;5.60;;;;;;;-6.54;100.00;99417.53;4193066;28;20059;-72
2023/02/27 01:11:42;;;;;;;10.20;4.40;;;;;;;-6.70;100.00;99402.19;4191235;28;20428;-72
2023/02/27 01:13:44;;;;;;;13.80;5.85;;;;;;;-6.74;100.00;99401.88;4195928;28;20396;-72
2023/02/27 01:15:45;;;;;;;15.18;5.75;;;;;;;-6.79;100.00;99407.16;4192701;28;20127;-73
2023/02/27 01:17:46;;;;;;;18.23;7.43;;;;;;;-6.87;100.00;99407.56;4193005;28;20464;-72
2023/02/27 01:19:47;;;;;;;12.07;4.73;;;;;;;-6.95;100.00;99410.63;4191253;28;20056;-73
2023/02/27 01:21:47;;;;;;;8.10;3.95;;;;;;;-7.01;100.00;99406.22;4190622;28;20068;-72
2023/02/27 01:23:48;;;;;;;9.77;5.10;;;;;;;-7.11;100.00;99407.69;4190547;28;20051;-72
2023/02/27 01:25:55;;;;;;;7.55;3.70;;;;;;;-7.18;100.00;99404.31;4191925;27;20417;-73
2023/02/27 01:27:55;;;;;;;6.72;3.72;;;;;;;-7.22;100.00;99418.47;4188269;28;20044;-73
2023/02/27 01:29:56;;;;;;;5.68;3.20;;;;;;;-7.29;100.00;99417.78;4187837;28;20045;-72
2023/02/27 01:31:56;;;;;;;8.18;3.80;;;;;;;-7.25;100.00;99410.88;4187971;28;20044;-73
2023/02/27 01:33:56;;;;;;;5.53;3.25;;;;;;;-7.24;100.00;99413.34;4187126;28;20069;-73
2023/02/27 01:35:57;;;;;;;6.85;3.70;;;;;;;-7.14;100.00;99407.31;4188170;28;20037;-72
2023/02/27 01:37:57;;;;;;;5.40;3.50;;;;;;;-6.99;100.00;99414.88;4187631;28;20503;-72
2023/02/27 01:39:57;;;;;;;6.80;4.32;;;;;;;-6.91;100.00;99415.31;4188734;28;20041;-72
2023/02/27 01:41:58;;;;;;;7.25;4.15;;;;;;;-6.93;100.00;99419.31;4175399;28;20069;-72
2023/02/27 01:44:08;;;;;;;7.57;3.78;;;;;;;-6.94;100.00;99407.72;4203176;28;20094;-72
2023/02/27 01:46:08;;;;;;;8.80;4.32;;;;;;;-6.93;100.00;99417.41;4203538;27;20048;-72
2023/02/27 01:48:23;;;;;;;10.25;4.22;;;;;;;-6.91;100.00;99422.56;4204808;27;20067;-72
2023/02/27 01:50:24;;;;;;;8.10;3.75;;;;;;;-6.98;100.00;99419.19;4204789;27;20528;-72
2023/02/27 01:52:25;;;;;;;7.72;4.40;;;;;;;-6.98;100.00;99422.69;4204698;27;20048;-73
2023/02/27 01:54:27;;;;;;;7.45;3.60;;;;;;;-7.04;100.00;99417.47;4204054;27;20471;-73
2023/02/27 01:56:29;;;;;;;7.50;4.20;;;;;;;-7.12;100.00;99424.84;4204700;27;20603;-73
2023/02/27 01:58:30;;;;;;;9.35;3.75;;;;;;;-7.19;100.00;99416.13;4204319;27;20044;-73
2023/02/27 02:00:31;;;;;;;8.57;4.07;;;;;;;-7.17;100.00;99414.00;4204712;27;20365;-73
2023/02/27 02:02:41;;;;;;;6.22;3.30;;;;;;;-7.22;100.00;99419.28;4203438;28;20457;-72
2023/02/27 02:04:42;;;;;;;7.05;3.53;;;;;;;-7.24;100.00;99416.03;4204323;27;20485;-72
2023/02/27 02:06:48;;;;;;;6.45;3.60;;;;;;;-7.30;100.00;99419.66;4204329;27;20090;-72
2023/02/27 02:08:50;;;;;;;5.43;3.20;;;;;;;-7.29;100.00;99415.09;4204168;27;20047;-72
2023/02/27 02:10:53;;;;;;;4.00;2.65;;;;;;;-7.29;100.00;99428.53;4203780;27;20089;-72
2023/02/27 02:12:53;;;;;;;;;;;;;;;-7.30;100.00;99421.53;4203839;27;20131;-72
2023/02/27 02:14:54;;;;;;;6.68;3.38;;;;;;;-7.25;100.00;99418.97;4204991;27;20005;-72
2023/02/27 02:17:03;;;;;;;5.00;2.88;;;;;;;-7.27;100.00;99421.06;4204203;27;20565;-72
2023/02/27 02:19:04;;;;;;;5.63;3.15;;;;;;;-7.24;100.00;99421.41;4203940;27;20147;-72
2023/02/27 02:21:22;;;;;;;10.20;3.70;;;;;;;-7.31;100.00;99419.91;4204187;27;20067;-72
2023/02/27 02:24:00;;;;;;;5.07;3.45;;;;;;;-7.35;100.00;99414.19;4202475;27;20040;-72
2023/02/27 02:26:34;;;;;;;5.53;3.08;;;;;;;-7.48;100.00;99414.47;4203649;27;20048;-72
2023/02/27 02:28:59;;;;;;;10.35;3.90;;;;;;;-7.48;100.00;99417.97;4203689;27;20044;-72
2023/02/27 02:31:08;;;;;;;7.55;3.38;;;;;;;-7.46;100.00;99413.16;4203169;27;20055;-72
2023/02/27 02:33:50;;;;;;;7.28;3.88;;;;;;;-7.38;100.00;99418.16;4202659;27;20048;-72
2023/02/27 02:36:23;;;;;;;8.98;3.45;;;;;;;-7.39;100.00;99421.91;4199956;27;20076;-72
2023/02/27 02:38:49;;;;;;;4.82;3.22;;;;;;;-7.51;100.00;99428.38;4190842;28;20448;-72
2023/02/27 02:41:01;;;;;;;7.30;4.07;;;;;;;-7.62;100.00;99424.66;4191670;28;20040;-72
2023/02/27 02:43:19;;;;;;;7.80;3.53;;;;;;;-7.76;100.00;99416.03;4192010;28;20036;-72
2023/02/27 02:45:43;;;;;;;7.07;3.30;;;;;;;-7.86;100.00;99423.03;4191688;28;20390;-72
2023/02/27 02:47:59;;;;;;;7.07;3.88;;;;;;;-7.80;100.00;99420.25;4193028;28;20044;-72
2023/02/27 02:50:17;;;;;;;8.27;4.00;;;;;;;-7.76;100.00;99431.34;4189358;28;20051;-72
2023/02/27 02:52:27;;;;;;;7.40;3.28;;;;;;;-7.92;100.00;99427.50;4187780;28;20053;-72
2023/02/27 02:54:36;;;;;;;11.30;4.45;;;;;;;-7.94;100.00;99435.81;4191862;28;20098;-73
2023/02/27 02:56:51;;;;;;;8.13;3.50;;;;;;;-7.93;100.00;99431.25;4192208;28;20048;-72
2023/02/27 02:58:59;;;;;;;6.65;3.55;;;;;;;-7.99;100.00;99433.00;4191144;28;20044;-72
2023/02/27 03:01:10;;;;;;;6.22;3.17;;;;;;;-7.99;100.00;99433.00;4191747;28;20047;-72
2023/02/27 03:03:17;;;;;;;6.95;3.80;;;;;;;-8.06;100.00;99428.78;4190622;28;20525;-72
2023/02/27 03:05:25;;;;;;;10.27;3.75;;;;;;;-8.20;100.00;99441.63;4191927;28;20365;-72
2023/02/27 03:07:37;;;;;;;6.93;4.30;;;;;;;-8.30;100.00;99444.06;4192612;28;20135;-72
2023/02/27 03:09:48;;;;;;;6.10;3.75;;;;;;;-8.44;100.00;99442.66;4192234;28;20043;-72
2023/02/27 03:11:52;;;;;;;10.38;4.47;;;;;;;-8.40;100.00;99450.03;4191761;28;20043;-72
2023/02/27 03:13:58;;;;;;;10.82;4.35;;;;;;;-8.29;100.00;99438.47;4188760;28;20056;-72
2023/02/27 03:16:23;;;;;;;7.43;3.95;;;;;;;-8.30;100.00;99442.19;4191724;28;20041;-72
2023/02/27 03:18:29;;;;;;;8.35;3.95;;;;;;;-8.32;100.00;99444.31;4191461;28;20048;-72
2023/02/27 03:20:34;;;;;;;6.47;3.75;;;;;;;-8.35;100.00;99447.50;4192589;28;20048;-72
2023/02/27 03:22:38;;;;;;;8.55;3.70;;;;;;;-8.33;100.00;99444.53;4191666;28;20044;-72
2023/02/27 03:24:43;;;;;;;7.28;4.20;;;;;;;-8.26;100.00;99442.56;4190651;28;20043;-73
2023/02/27 03:26:46;;;;;;;10.07;4.18;;;;;;;-8.32;100.00;99444.31;4190493;28;20045;-73
2023/02/27 03:28:59;;;;;;;7.65;4.38;;;;;;;-8.37;100.00;99452.25;4191347;28;20060;-72
2023/02/27 03:31:07;;;;;;;6.60;3.80;;;;;;;-8.34;100.00;99454.47;4191336;28;20128;-72
2023/02/27 03:33:15;;;;;;;9.32;4.03;;;;;;;-8.31;100.00;99455.84;4190402;28;20036;-72
2023/02/27 03:35:16;;;;;;;7.07;3.70;;;;;;;-8.44;100.00;99462.28;4191930;28;20041;-72
2023/02/27 03:37:47;;;;;;;15.82;4.25;;;;;;;-8.64;100.00;99451.84;4116685;27;20611;-72
2023/02/27 03:39:59;;;;;;;5.50;3.13;;;;;;;-8.70;100.00;99452.75;4154184;28;20136;-72
2023/02/27 03:42:22;;;;;;;5.78;3.25;;;;;;;-8.65;100.00;99460.97;4157690;28;20132;-72
2023/02/27 03:44:36;;;;;;;5.07;3.50;;;;;;;-8.70;100.00;99468.03;4156961;28;20998;-72
2023/02/27 03:46:37;;;;;;;8.57;3.38;;;;;;;-8.67;100.00;99463.06;4157017;28;20045;-72
2023/02/27 03:48:43;;;;;;;8.57;3.25;;;;;;;-8.78;100.00;99467.31;4156665;28;20041;-73
2023/02/27 03:50:43;;;;;;;5.55;3.13;;;;;;;-8.85;100.00;99468.50;4157453;28;20163;-72
2023/02/27 03:52:44;;;;;;;9.95;4.38;;;;;;;-8.85;100.00;99471.16;4156909;28;20106;-72
2023/02/27 03:55:01;;;;;;;6.65;3.90;;;;;;;-8.86;100.00;99470.31;4157906;28;20049;-72
2023/02/27 03:57:03;;;;;;;6.32;3.80;;;;;;;-8.89;100.00;99483.38;4157675;28;20049;-73
2023/02/27 03:59:04;;;;;;;5.97;3.60;;;;;;;-8.78;100.00;99487.97;4157633;28;20480;-73
2023/02/27 04:01:05;;;;;;;6.03;3.47;;;;;;;-8.83;100.00;99480.63;4156514;28;20041;-72
2023/02/27 04:03:06;;;;;;;5.70;3.35;;;;;;;-8.84;100.00;99483.53;4158077;28;20604;-72
2023/02/27 04:05:06;;;;;;;4.85;2.90;;;;;;;-8.88;100.00;99485.84;4158285;28;20041;-72
2023/02/27 04:07:21;;;;;;;4.72;2.90;;;;;;;-9.02;100.00;99499.63;4158700;28;20037;-72
2023/02/27 04:09:34;;;;;;;4.75;2.53;;;;;;;-9.07;100.00;99489.59;4159255;28;20378;-72
2023/02/27 04:11:44;;;;;;;5.68;3.10;;;;;;;-9.14;100.00;99489.69;4158611;28;20072;-72
2023/02/27 04:14:01;;;;;;;6.57;2.70;;;;;;;-9.16;100.00;99502.50;4158073;28;20049;-72
2023/02/27 04:16:20;;;;;;;7.20;3.08;;;;;;;-8.94;100.00;99504.69;4158168;28;20053;-73
2023/02/27 04:18:43;;;;;;;6.15;3.20;;;;;;;-8.70;100.00;99500.25;4158505;28;20049;-73
2023/02/27 04:20:53;;;;;;;4.68;2.55;;;;;;;-8.54;100.00;99507.66;4157566;28;20042;-72
2023/02/27 04:23:02;;;;;;;9.95;3.78;;;;;;;-8.33;100.00;99499.03;4157281;28;20137;-72
2023/02/27 04:25:12;;;;;;;8.77;3.47;;;;;;;-8.20;100.00;99496.13;4158122;28;20045;-72
2023/02/27 04:27:38;;;;;;;9.27;4.35;;;;;;;-8.22;100.00;99498.25;4158145;28;20061;-72
2023/02/27 04:29:55;;;;;;;13.02;4.35;;;;;;;-8.23;100.00;99503.84;4157418;28;20375;-72
2023/02/27 04:32:02;;;;;;;9.95;3.92;;;;;;;-8.16;100.00;99504.56;4158351;28;20029;-72
2023/02/27 04:34:17;;;;;;;9.40;3.90;;;;;;;-8.07;100.00;99508.53;4157571;28;20061;-72
2023/02/27 04:36:23;;;;;;;9.05;4.10;;;;;;;-8.09;100.00;99501.78;4158589;28;20042;-72
2023/02/27 04:38:43;;;;;;;8.25;3.28;;;;;;;-8.11;100.00;99501.97;4158184;28;20630;-72
2023/02/27 04:40:53;;;;;;;4.93;3.00;;;;;;;-8.11;100.00;99507.34;4157634;28;20672;-73
2023/02/27 04:42:56;;;;;;;7.53;3.90;;;;;;;-8.12;100.00;99505.72;4157823;28;20068;-72
2023/02/27 04:45:02;;;;;;;6.93;3.80;;;;;;;-8.04;100.00;99505.38;4157519;28;20041;-72
2023/02/27 04:47:05;;;;;;;7.32;3.50;;;;;;;-8.01;100.00;99507.63;4158076;28;20042;-72
2023/02/27 04:49:18;;;;;;;6.45;3.35;;;;;;;-8.08;100.00;99516.84;4157516;28;20128;-72
2023/02/27 04:51:26;;;;;;;;;;;;;;;-8.09;100.00;99510.66;4158713;28;20264;-72
2023/02/27 04:53:36;;;;;;;5.25;2.55;;;;;;;-8.15;100.00;99502.69;4157069;28;19917;-72
2023/02/27 04:55:43;;;;;;;4.93;3.05;;;;;;;-8.15;100.00;99508.88;4157598;28;20056;-72
2023/02/27 04:57:52;;;;;;;8.65;3.38;;;;;;;-8.10;100.00;99516.25;4158281;28;20053;-72
2023/02/27 04:59:55;;;;;;;6.13;2.97;;;;;;;-8.10;100.00;99511.69;4157305;28;20271;-72
2023/02/27 05:02:03;;;;;;;7.00;3.05;;;;;;;-8.08;100.00;99514.16;4157793;28;20045;-72
2023/02/27 05:04:07;;;;;;;5.50;2.85;;;;;;;-8.07;100.00;99513.91;4157375;28;20627;-72
2023/02/27 05:06:10;;;;;;;5.57;2.95;;;;;;;-8.02;100.00;99514.03;4158404;28;20034;-72
2023/02/27 05:08:39;;;;;;;;;;;;;;;-7.89;100.00;99514.88;4158451;28;20033;-72
2023/02/27 05:11:04;;;;;;;8.38;4.28;;;;;;;-7.79;100.00;99528.53;4162953;28;20012;-72
2023/02/27 05:13:22;;;;;;;7.85;4.65;;;;;;;-7.68;100.00;99525.03;4147111;28;20127;-72
2023/02/27 05:15:35;;;;;;;7.43;4.50;;;;;;;-7.51;100.00;99514.41;4157560;28;20038;-72
2023/02/27 05:17:58;;;;;;;7.45;4.47;;;;;;;-7.48;100.00;99520.09;4157401;28;20037;-72
2023/02/27 05:19:59;;;;;;;8.20;5.00;;;;;;;-7.43;100.00;99514.84;4157915;28;20486;-72
2023/02/27 05:22:15;;;;;;;6.07;4.43;;;;;;;-7.34;100.00;99511.81;4157926;28;20454;-72
2023/02/27 05:24:34;;;;;;;9.82;4.72;;;;;;;-7.26;100.00;99528.41;4155174;28;20072;-72
2023/02/27 05:26:58;;;;;;;9.65;5.03;;;;;;;-7.21;100.00;99515.03;4157719;28;20505;-72
2023/02/27 05:29:07;;;;;;;7.82;4.35;;;;;;;-7.15;100.00;99521.34;4150152;28;20124;-72
2023/02/27 05:31:25;;;;;;;11.90;4.65;;;;;;;-7.05;100.00;99526.94;4157977;28;20056;-72
2023/02/27 05:33:37;;;;;;;11.32;5.28;;;;;;;-6.96;100.00;99528.19;4155872;28;20052;-73
2023/02/27 05:35:47;;;;;;;5.80;3.85;;;;;;;-6.90;100.00;99532.63;4157572;28;20068;-73
2023/02/27 05:37:53;;;;;;;10.18;4.35;;;;;;;-6.91;100.00;99532.88;4157528;28;20622;-72
2023/02/27 05:39:54;;;;;;;7.38;4.28;;;;;;;-6.87;100.00;99526.78;4156161;28;20502;-72
2023/02/27 05:42:06;;;;;;;8.63;3.70;;;;;;;-6.85;100.00;99540.00;4157373;28;20095;-72
2023/02/27 05:44:12;;;;;;;8.93;4.23;;;;;;;-6.88;100.00;99533.19;4156737;28;20048;-72
2023/02/27 05:46:29;;;;;;;7.07;3.72;;;;;;;-6.83;100.00;99532.50;4157677;28;20048;-72
2023/02/27 05:48:34;;;;;;;8.48;3.75;;;;;;;-6.86;100.00;99533.81;4156980;28;20045;-72
2023/02/27 05:50:37;;;;;;;10.52;4.18;;;;;;;-6.86;100.00;99531.13;4157630;28;20051;-72
2023/02/27 05:52:39;;;;;;;7.78;4.10;;;;;;;-6.82;100.00;99531.44;4157038;28;20132;-72
2023/02/27 05:54:59;;;;;;;8.00;3.92;;;;;;;-6.77;100.00;99533.44;4155182;28;20107;-72
2023/02/27 05:57:03;;;;;;;13.63;4.95;;;;;;;-6.69;100.00;99538.44;4045726;28;20053;-72
2023/02/27 05:59:13;;;;;;;11.02;5.10;;;;;;;-6.61;100.00;99532.66;4161263;28;20415;-72
2023/02/27 06:01:13;;;;;;;10.23;4.40;;;;;;;-6.55;100.00;99543.25;4157279;28;20366;-72
2023/02/27 06:03:14;;;;;;;11.48;4.03;;;;;;;-6.48;100.00;99540.44;4157491;28;20420;-72
2023/02/27 06:05:17;;;;;;;7.80;3.92;;;;;;;-6.49;100.00;99535.28;4156413;28;20053;-72
2023/02/27 06:07:18;;;;;;;5.95;3.83;;;;;;;-6.55;100.00;99555.91;4157203;28;20077;-72
2023/02/27 06:09:19;;;;;;;14.57;3.75;;;;;;;-6.57;100.00;99553.47;4156548;28;20072;-72
2023/02/27 06:11:19;;;;;;;9.95;3.45;;;;;;;-6.66;100.00;99538.75;4157193;28;20096;-72
2023/02/27 06:13:21;;;;;;;4.60;3.13;;;;;;;-6.68;100.00;99556.22;4160482;28;20349;-72
2023/02/27 06:15:21;;;;;;;8.48;3.35;;;;;;;-6.73;100.00;99548.84;4160538;28;20053;-72
2023/02/27 06:17:22;;;;;;;8.05;3.83;;;;;;;-6.73;100.00;99551.53;4160439;28;20041;-72
2023/02/27 06:19:22;;;;;;;6.97;3.58;;;;;;;-6.76;100.00;99549.31;4160242;28;20075;-72
2023/02/27 06:21:23;;;;;;;6.75;3.67;;;;;;;-6.77;100.00;99547.69;4160540;28;20045;-72
2023/02/27 06:23:23;;;;;;;6.35;3.58;;;;;;;-6.75;100.00;99547.44;4159508;28;20430;-72
2023/02/27 06:25:23;;;;;;;6.28;3.50;;;;;;;-6.74;100.00;99549.09;4157926;28;20087;-72
2023/02/27 06:27:25;;;;;;;6.93;4.15;;;;;;;-6.74;100.00;99544.53;4160054;28;20077;-72
2023/02/27 06:29:25;;;;;;;6.32;3.70;;;;;;;-6.72;100.00;99547.78;4160198;28;20052;-72
2023/02/27 06:31:26;;;;;;;7.32;3.53;;;;;;;-6.67;100.00;99549.75;4160347;28;20049;-72
2023/02/27 06:33:26;;;;;;;59.78;23.70;;;;;;;-6.62;100.00;99547.16;4159262;28;20042;-72
2023/02/27 06:35:28;;;;;;;39.97;16.85;;;;;;;-6.55;100.00;99545.94;4158820;28;20041;-72
2023/02/27 06:37:28;;;;;;;32.60;11.57;;;;;;;-6.47;100.00;99552.84;4159243;28;20049;-72
2023/02/27 06:39:29;;;;;;;15.13;8.50;;;;;;;-6.42;100.00;99547.56;4160137;28;20041;-73
2023/02/27 06:41:29;;;;;;;17.70;7.40;;;;;;;-6.37;100.00;99544.97;4159915;28;20045;-73
2023/02/27 06:43:33;;;;;;;13.43;6.50;;;;;;;-6.30;100.00;99558.25;4159331;28;20553;-72
2023/02/27 06:45:34;;;;;;;12.10;6.05;;;;;;;-6.23;100.00;99556.22;4159856;28;20057;-72
2023/02/27 06:47:34;;;;;;;10.38;4.88;;;;;;;-6.19;100.00;99554.72;4160276;28;20079;-72
2023/02/27 06:49:35;;;;;;;7.13;4.03;;;;;;;-6.14;100.00;99557.47;4160027;28;20084;-72
2023/02/27 06:51:35;;;;;;;13.07;5.95;;;;;;;-6.04;100.00;99556.81;4159231;28;20541;-72
2023/02/27 06:53:36;;;;;;;11.90;5.78;;;;;;;-6.01;100.00;99553.66;4159567;28;20679;-73
2023/02/27 06:55:37;;;;;;;12.40;4.75;;;;;;;-5.95;100.00;99547.31;4159508;28;20044;-73
2023/02/27 06:57:37;;;;;;;12.48;5.25;;;;;;;-5.89;100.00;99551.66;4159663;28;20061;-73
2023/02/27 06:59:37;;;;;;;11.25;6.22;;;;;;;-5.85;100.00;99566.31;4160249;28;20053;-73
2023/02/27 07:01:38;;;;;;;10.00;5.75;;;;;;;-5.80;100.00;99554.78;4159729;28;20041;-73
2023/02/27 07:03:38;;;;;;;9.00;4.90;;;;;;;-5.75;100.00;99552.16;4159215;28;20057;-73
2023/02/27 07:05:40;;;;;;;10.25;5.90;;;;;;;-5.69;100.00;99553.88;4159767;28;20073;-73
2023/02/27 07:07:41;;;;;;;10.70;5.50;;;;;;;-5.66;100.00;99556.09;4159372;28;20515;-73
2023/02/27 07:09:41;;;;;;;12.70;6.30;;;;;;;-5.60;100.00;99562.38;4159297;28;20040;-73
2023/02/27 07:11:41;;;;;;;8.90;5.15;;;;;;;-5.57;100.00;99559.19;4159847;28;20038;-72
2023/02/27 07:13:42;;;;;;;9.13;5.50;;;;;;;-5.53;100.00;99557.63;4159250;28;20069;-73
2023/02/27 07:15:43;;;;;;;12.95;6.00;;;;;;;-5.51;100.00;99558.19;4159543;28;20296;-72
2023/02/27 07:17:43;;;;;;;13.93;5.10;;;;;;;-5.43;100.00;99555.09;4159466;28;20428;-72
2023/02/27 07:19:44;;;;;;;7.43;4.25;;;;;;;-5.38;100.00;99561.38;4159567;28;20052;-73
2023/02/27 07:21:44;;;;;;;13.95;4.57;;;;;;;-5.37;100.00;99560.31;4159368;28;20081;-72
2023/02/27 07:23:45;;;;;;;10.10;4.47;;;;;;;-5.33;100.00;99566.03;4158819;28;20038;-72
2023/02/27 07:25:46;;;;;;;7.95;4.03;;;;;;;-5.28;100.00;99563.41;4158828;28;20056;-73
2023/02/27 07:27:48;;;;;;;10.27;4.67;;;;;;;-5.26;100.00;99572.06;4159790;28;20069;-72
2023/02/27 07:29:48;;;;;;;12.48;4.80;;;;;;;-5.23;100.00;99570.75;4159231;28;20201;-73
2023/02/27 07:31:49;;;;;;;8.63;4.18;;;;;;;-5.24;100.00;99569.09;4159306;28;20165;-72
2023/02/27 07:33:49;;;;;;;8.40;4.15;;;;;;;-5.25;100.00;99571.00;4158613;28;20123;-72
2023/02/27 07:35:50;;;;;;;11.27;4.43;;;;;;;-5.23;100.00;99573.44;4158858;28;20078;-73
2023/02/27 07:37:50;;;;;;;9.75;5.25;;;;;;;-5.21;100.00;99582.13;4159208;28;20054;-72
2023/02/27 07:39:51;;;;;;;10.90;4.72;;;;;;;-5.17;100.00;99580.53;4158817;28;20045;-72
2023/02/27 07:41:51;;;;;;;6.65;4.20;;;;;;;-5.10;100.00;99581.19;4159283;28;20081;-72
2023/02/27 07:43:51;;;;;;;8.45;4.53;;;;;;;-5.05;100.00;99586.63;4158335;28;20041;-72
2023/02/27 07:45:51;;;;;;;17.60;6.45;;;;;;;-4.98;100.00;99592.69;4158917;28;20033;-72
2023/02/27 07:47:52;;;;;;;14.05;6.03;;;;;;;-4.95;100.00;99589.50;4159501;28;20861;-72
2023/02/27 07:49:52;;;;;;;11.05;5.40;;;;;;;-4.92;100.00;99591.69;4158480;28;20048;-72
2023/02/27 07:51:52;;;;;;;11.02;5.57;;;;;;;-4.88;100.00;99598.25;4158907;28;20046;-72
2023/02/27 07:53:57;;;;;;;14.75;6.35;;;;;;;-4.84;100.00;99609.34;4158585;28;20160;-72
2023/02/27 07:55:57;;;;;;;8.75;6.18;;;;;;;-4.82;100.00;99602.63;4158534;28;20440;-72
2023/02/27 07:57:57;;;;;;;14.48;7.18;;;;;;;-4.77;100.00;99609.16;4158771;28;20045;-72
2023/02/27 07:59:58;;;;;;;14.05;6.28;;;;;;;-4.65;100.00;99612.53;4158501;28;20092;-73
2023/02/27 08:01:58;;;;;;;13.40;5.10;;;;;;;-4.54;100.00;99615.13;4159027;28;20405;-72
2023/02/27 08:03:58;;;;;;;10.90;5.20;;;;;;;-4.47;100.00;99614.09;4157567;28;20045;-72
2023/02/27 08:05:58;;;;;;;10.32;5.75;;;;;;;-4.44;100.00;99610.94;4158468;28;20064;-72
2023/02/27 08:07:59;;;;;;;8.35;5.78;;;;;;;-4.45;100.00;99604.72;4158674;28;20057;-73
2023/02/27 08:09:59;;;;;;;15.48;5.63;;;;;;;-4.43;100.00;99610.66;4158868;28;20045;-72
2023/02/27 08:12:01;;;;;;;11.20;6.15;;;;;;;-4.37;100.00;99628.56;4158688;28;20080;-72
2023/02/27 08:14:02;;;;;;;17.55;7.82;;;;;;;-4.36;100.00;99619.41;4157401;28;20038;-73
2023/02/27 08:16:02;;;;;;;11.73;6.13;;;;;;;-4.34;100.00;99609.16;4158702;28;20561;-72
2023/02/27 08:18:03;;;;;;;13.65;6.40;;;;;;;-4.36;100.00;99610.47;4158279;28;20081;-72
2023/02/27 08:20:04;;;;;;;15.43;7.63;;;;;;;-4.31;100.00;99622.13;4158485;28;20025;-72
2023/02/27 08:22:04;;;;;;;18.33;9.00;;;;;;;-4.28;100.00;99618.13;4158501;28;20292;-72
2023/02/27 08:24:04;;;;;;;22.67;9.13;;;;;;;-4.27;100.00;99615.19;4156107;28;20029;-73
2023/02/27 08:26:05;;;;;;;16.83;8.43;;;;;;;-4.24;100.00;99621.94;4158235;28;20373;-73
2023/02/27 08:28:05;;;;;;;15.50;7.88;;;;;;;-4.19;100.00;99613.09;4158278;28;20048;-73
2023/02/27 08:30:09;;;;;;;13.85;6.57;;;;;;;-4.14;100.00;99607.72;4158522;28;20370;-73
2023/02/27 08:32:10;;;;;;;11.88;6.07;;;;;;;-4.11;100.00;99618.88;4158409;28;20041;-73
2023/02/27 08:34:10;;;;;;;12.23;6.70;;;;;;;-4.06;100.00;99620.78;4156707;28;20059;-73
2023/02/27 08:36:10;;;;;;;9.15;5.55;;;;;;;-4.03;100.00;99618.41;4158348;28;20680;-73
2023/02/27 08:38:11;;;;;;;5.20;3.85;;;;;;;-3.98;100.00;99626.56;4158732;28;20083;-73
2023/02/27 08:40:11;;;;;;;4.90;3.10;;;;;;;-3.91;100.00;99615.53;4158300;28;20056;-73
2023/02/27 08:42:14;;;;;;;5.85;3.15;;;;;;;-3.85;100.00;99611.00;4158049;28;20021;-72
2023/02/27 08:44:14;;;;;;;3.97;3.08;;;;;;;-3.79;100.00;99618.09;4158106;28;20041;-72
2023/02/27 08:46:14;;;;;;;4.22;2.85;;;;;;;-3.74;100.00;99612.72;4157847;28;20370;-72
2023/02/27 08:48:16;;;;;;;4.82;3.20;;;;;;;-3.67;100.00;99618.75;4157753;28;20106;-72
2023/02/27 08:50:16;;;;;;;4.47;2.83;;;;;;;-3.60;100.00;99621.25;4158281;28;20112;-73
2023/02/27 08:52:17;;;;;;;4.78;3.10;;;;;;;-3.57;100.00;99623.41;4158195;28;20069;-73
2023/02/27 08:54:17;;;;;;;5.07;3.15;;;;;;;-3.54;100.00;99623.75;4157475;28;20033;-72
2023/02/27 08:56:18;;;;;;;5.68;2.88;;;;;;;-3.49;100.00;99615.66;4158095;28;20112;-72
2023/02/27 08:58:18;;;;;;;4.72;2.85;;;;;;;-3.45;100.00;99627.59;4158477;28;20056;-73
2023/02/27 09:00:19;;;;;;;14.90;6.00;;;;;;;-3.34;100.00;99630.38;4158351;28;20491;-73
2023/02/27 09:02:22;;;;;;;13.43;6.40;;;;;;;-3.33;100.00;99630.13;4157712;28;20323;-73
2023/02/27 09:04:22;;;;;;;11.10;5.20;;;;;;;-3.29;100.00;99625.00;4157555;28;20033;-72
2023/02/27 09:06:23;;;;;;;10.95;6.18;;;;;;;-3.23;100.00;99630.19;4158089;28;20841;-73
2023/02/27 09:08:23;;;;;;;5.07;3.80;;;;;;;-3.12;100.00;99636.50;4158134;28;20033;-73
2023/02/27 09:10:23;;;;;;;8.13;3.50;;;;;;;-3.00;100.00;99629.00;4157467;28;20533;-73
2023/02/27 09:12:24;;;;;;;10.20;4.93;;;;;;;-2.97;100.00;99628.50;4157923;28;20049;-73
2023/02/27 09:14:24;;;;;;;9.52;5.20;;;;;;;-2.91;100.00;99626.59;4157782;28;20038;-72
2023/02/27 09:16:25;;;;;;;5.45;3.20;;;;;;;-2.87;100.00;99622.31;4158317;28;20037;-72
2023/02/27 09:18:25;;;;;;;5.88;3.00;;;;;;;-2.78;100.00;99630.75;4157707;28;20120;-73
2023/02/27 09:20:26;;;;;;;4.00;2.63;;;;;;;-2.73;100.00;99628.91;4157660;28;20048;-73
2023/02/27 09:22:26;;;;;;;6.55;3.17;;;;;;;-2.68;100.00;99626.19;4157035;28;20113;-73
2023/02/27 09:24:26;;;;;;;6.68;4.03;;;;;;;-2.62;100.00;99629.75;4157201;28;20037;-73
2023/02/27 09:26:26;;;;;;;5.00;2.80;;;;;;;-2.60;100.00;99619.47;4157936;28;20042;-73
2023/02/27 09:28:27;;;;;;;4.05;2.70;;;;;;;-2.54;100.00;99621.13;4157697;28;20042;-73
2023/02/27 09:30:27;;;;;;;4.65;3.05;;;;;;;-2.39;100.00;99623.09;4157468;28;20103;-72
2023/02/27 09:32:27;;;;;;;5.15;2.75;;;;;;;-2.31;100.00;99617.97;4157460;28;20116;-73
2023/02/27 09:34:28;;;;;;;8.50;4.80;;;;;;;-2.26;100.00;99622.59;4157159;28;20025;-73
2023/02/27 09:36:28;;;;;;;4.70;2.90;;;;;;;-2.18;100.00;99621.25;4157797;28;20493;-72
2023/02/27 09:38:29;;;;;;;3.30;2.47;;;;;;;-2.08;100.00;99618.56;4157825;28;20034;-73